CheckWX is a tool to help pilots better visualize weather data.  It is not intended as a substitute for an official pre-flight weather briefing.

19:23:06 UTC

KQES METAR
Daesan Rws
Daesan Rws, South Korea
Current

13 mins ago

KQES 221910Z AUTO 17004KT 2000 BR BKN190 M00/M01 A3021 RMK A02 TSNO
Observed
Feb-22 @ 19:10 UTC
Wind
  • 170° at 4 KTS
Visibility
1,996 meters
Flight Rules
IFR
Conditions
Mist
Cloud Levels
  • Broken at 19,000' AGL
Temperature
C / 32°F
Dewpoint
-1°C / 30°F
Humidity
93%
Altimeter
30.21" Hg
Pressure
1023.02 hPa
Previous

23 mins ago

KQES 221900Z AUTO 16003KT 2400 BR BKN190 00/M01 A3021 RMK A02 TSNO
Observed
Feb-22 @ 19:00 UTC
Wind
  • 160° at 3 KTS
Visibility
2,398 meters
Flight Rules
IFR
Conditions
Mist
Cloud Levels
  • Broken at 19,000' AGL
Temperature
C / 32°F
Dewpoint
-1°C / 30°F
Humidity
93%
Altimeter
30.21" Hg
Pressure
1023.02 hPa
Previous

33 mins ago

KQES 221850Z AUTO 16001KT 2800 BR BKN190 00/M01 A3022 RMK A02 TSNO
Observed
Feb-22 @ 18:50 UTC
Wind
  • 160° at 1 KTS
Visibility
2,800 meters
Flight Rules
IFR
Conditions
Mist
Cloud Levels
  • Broken at 19,000' AGL
Temperature
C / 32°F
Dewpoint
-1°C / 30°F
Humidity
93%
Altimeter
30.22" Hg
Pressure
1023.42 hPa